createdAt,value
2023-05-14T00:00:41.036Z,99311.16
2023-05-14T00:03:07.847Z,99315.00
2023-05-14T00:05:34.615Z,99313.97
2023-05-14T00:08:01.115Z,99311.31
2023-05-14T00:10:28.093Z,99309.63
2023-05-14T00:12:54.585Z,99311.31
2023-05-14T00:15:21.476Z,99306.47
2023-05-14T00:17:48.036Z,99312.63
2023-05-14T00:20:14.813Z,99299.50
2023-05-14T00:22:41.470Z,99306.66
2023-05-14T00:25:09.561Z,99302.97
2023-05-14T00:27:37.734Z,99295.19
2023-05-14T00:30:06.794Z,99290.53
2023-05-14T00:32:34.111Z,99293.84
2023-05-14T00:35:02.995Z,99294.31
2023-05-14T00:37:30.828Z,99283.91
2023-05-14T00:39:57.853Z,99285.34
2023-05-14T00:42:24.633Z,99284.38
2023-05-14T00:44:51.135Z,99287.38
2023-05-14T00:47:18.247Z,99289.72
2023-05-14T00:49:45.852Z,99277.91
2023-05-14T00:52:12.833Z,99282.03
2023-05-14T00:54:39.923Z,99276.75
2023-05-14T00:57:06.927Z,99280.06
2023-05-14T00:59:34.518Z,99278.41
2023-05-14T01:02:01.850Z,99273.75
2023-05-14T01:04:29.248Z,99278.91
2023-05-14T01:07:17.074Z,99276.09
2023-05-14T01:10:08.358Z,99270.13
2023-05-14T01:12:57.785Z,99269.13
2023-05-14T01:15:31.853Z,99269.44
2023-05-14T01:18:07.458Z,99268.28
2023-05-14T01:20:34.099Z,99274.94
2023-05-14T01:23:00.941Z,99280.06
2023-05-14T01:25:29.719Z,99271.28
2023-05-14T01:28:17.859Z,99266.97
2023-05-14T01:30:56.981Z,99266.78
2023-05-14T01:33:29.285Z,99263.13
2023-05-14T01:35:56.632Z,99264.28
2023-05-14T01:38:27.472Z,99262.56
2023-05-14T01:40:56.564Z,99254.31
2023-05-14T01:43:23.901Z,99257.16
2023-05-14T01:45:50.646Z,99254.31
2023-05-14T01:48:17.635Z,99254.00
2023-05-14T01:50:44.212Z,99260.53
2023-05-14T01:53:10.644Z,99258.50
2023-05-14T01:55:37.149Z,99259.28
2023-05-14T01:58:03.612Z,99257.81
2023-05-14T02:00:30.439Z,99253.63
2023-05-14T02:02:56.926Z,99256.38
2023-05-14T02:05:23.482Z,99264.59
2023-05-14T02:07:50.066Z,99266.72
2023-05-14T02:10:16.568Z,99263.56
2023-05-14T02:12:43.157Z,99265.69
2023-05-14T02:15:11.010Z,99264.53
2023-05-14T02:17:37.539Z,99264.56
2023-05-14T02:20:04.802Z,99260.22
2023-05-14T02:22:31.274Z,99256.69
2023-05-14T02:24:57.797Z,99251.16
2023-05-14T02:27:24.364Z,99255.81
2023-05-14T02:29:50.819Z,99248.50
2023-05-14T02:32:17.366Z,99255.81
2023-05-14T02:34:43.853Z,99252.44
2023-05-14T02:37:10.326Z,99245.47
2023-05-14T02:39:36.774Z,99244.97
2023-05-14T02:42:03.397Z,99245.78
2023-05-14T02:44:31.727Z,99245.00
2023-05-14T02:46:58.254Z,99242.47
2023-05-14T02:49:24.993Z,99241.31
2023-05-14T02:51:51.605Z,99243.91
2023-05-14T02:54:18.088Z,99240.66
2023-05-14T02:56:44.576Z,99241.22
2023-05-14T02:59:11.100Z,99236.88
2023-05-14T03:01:38.049Z,99246.47
2023-05-14T03:04:05.392Z,99241.59
2023-05-14T03:06:31.940Z,99244.13
2023-05-14T03:08:58.423Z,99232.38
2023-05-14T03:11:25.602Z,99235.75
2023-05-14T03:13:52.085Z,99239.44
2023-05-14T03:16:18.958Z,99234.41
2023-05-14T03:18:45.475Z,99227.59
2023-05-14T03:21:12.516Z,99222.91
2023-05-14T03:23:39.153Z,99228.13
2023-05-14T03:26:06.248Z,99228.63
2023-05-14T03:28:32.741Z,99233.47
2023-05-14T03:30:59.298Z,99233.22
2023-05-14T03:33:26.050Z,99240.91
2023-05-14T03:35:52.557Z,99229.47
2023-05-14T03:38:19.116Z,99234.09
2023-05-14T03:40:46.217Z,99237.78
2023-05-14T03:43:12.703Z,99234.66
2023-05-14T03:45:39.871Z,99232.44
2023-05-14T03:48:06.720Z,99230.19
2023-05-14T03:50:33.514Z,99233.28
2023-05-14T03:53:03.300Z,99239.91
2023-05-14T03:55:29.930Z,99237.91
2023-05-14T03:57:56.445Z,99242.59
2023-05-14T04:00:23.179Z,99235.91
2023-05-14T04:02:49.974Z,99232.94
2023-05-14T04:05:16.944Z,99231.03
2023-05-14T04:07:45.115Z,99234.38
2023-05-14T04:10:12.853Z,99233.03
2023-05-14T04:12:39.370Z,99238.44
2023-05-14T04:15:06.824Z,99237.13
2023-05-14T04:17:34.951Z,99237.19
2023-05-14T04:20:01.710Z,99241.19
2023-05-14T04:22:28.189Z,99236.88
2023-05-14T04:24:54.747Z,99237.59
2023-05-14T04:27:22.182Z,99232.34
2023-05-14T04:29:50.467Z,99236.06
2023-05-14T04:32:17.695Z,99234.34
2023-05-14T04:34:44.417Z,99237.34
2023-05-14T04:37:10.941Z,99243.66
2023-05-14T04:39:38.339Z,99241.91
2023-05-14T04:42:06.607Z,99241.84
2023-05-14T04:44:36.161Z,99239.81
2023-05-14T04:47:02.871Z,99240.66
2023-05-14T04:49:30.761Z,99246.88
2023-05-14T04:51:57.342Z,99248.66
2023-05-14T04:54:23.959Z,99248.31
2023-05-14T04:56:51.200Z,99250.81
2023-05-14T04:59:17.862Z,99246.16
2023-05-14T05:01:45.323Z,99250.72
2023-05-14T05:04:12.221Z,99245.22
2023-05-14T05:06:39.091Z,99244.59
2023-05-14T05:09:05.578Z,99252.09
2023-05-14T05:11:32.093Z,99249.66
2023-05-14T05:13:58.524Z,99244.88
2023-05-14T05:16:25.106Z,99246.97
2023-05-14T05:18:51.826Z,99239.13
2023-05-14T05:21:19.365Z,99247.59
2023-05-14T05:23:45.898Z,99251.72
2023-05-14T05:26:12.419Z,99257.31
2023-05-14T05:28:38.951Z,99254.97
2023-05-14T05:31:05.685Z,99256.38
2023-05-14T05:33:32.276Z,99249.03
2023-05-14T05:35:58.699Z,99253.44
2023-05-14T05:38:25.296Z,99261.22
2023-05-14T05:40:52.283Z,99255.31
2023-05-14T05:43:18.744Z,99251.19
2023-05-14T05:45:45.984Z,99256.00
2023-05-14T05:48:12.781Z,99249.78
2023-05-14T05:50:39.272Z,99256.50
2023-05-14T05:53:05.727Z,99253.81
2023-05-14T05:55:32.236Z,99248.34
2023-05-14T05:57:58.840Z,99258.13
2023-05-14T06:00:25.696Z,99259.97
2023-05-14T06:02:52.446Z,99262.25
2023-05-14T06:05:19.495Z,99252.84
2023-05-14T06:07:46.057Z,99254.66
2023-05-14T06:10:12.583Z,99243.53
2023-05-14T06:12:39.155Z,99249.00
2023-05-14T06:15:06.646Z,99253.63
2023-05-14T06:17:33.204Z,99255.31
2023-05-14T06:19:59.815Z,99251.50
2023-05-14T06:22:26.412Z,99256.31
2023-05-14T06:24:52.920Z,99252.13
2023-05-14T06:27:19.335Z,99251.63
2023-05-14T06:29:45.941Z,99252.97
2023-05-14T06:32:15.422Z,99250.28
2023-05-14T06:34:42.966Z,99248.91
2023-05-14T06:37:10.491Z,99253.09
2023-05-14T06:39:37.952Z,99250.41
2023-05-14T06:42:05.698Z,99256.88
2023-05-14T06:44:32.710Z,99248.78
2023-05-14T06:46:59.341Z,99249.81
2023-05-14T06:49:26.135Z,99248.63
2023-05-14T06:51:53.740Z,99249.81
2023-05-14T06:54:20.595Z,99248.66
2023-05-14T06:56:47.133Z,99249.31
2023-05-14T06:59:13.769Z,99247.50
2023-05-14T07:01:40.925Z,99237.66
2023-05-14T07:04:07.718Z,99238.88
2023-05-14T07:06:34.784Z,99246.56
2023-05-14T07:09:02.214Z,99241.31
2023-05-14T07:11:28.902Z,99250.00
2023-05-14T07:13:55.532Z,99248.34
2023-05-14T07:16:22.162Z,99257.09
2023-05-14T07:18:48.796Z,99241.88
2023-05-14T07:21:15.425Z,99241.69
2023-05-14T07:23:41.900Z,99247.00
2023-05-14T07:26:08.932Z,99239.03
2023-05-14T07:28:35.729Z,99234.00
2023-05-14T07:31:08.587Z,99231.97
2023-05-14T07:33:36.438Z,99240.06
2023-05-14T07:36:03.031Z,99242.22
2023-05-14T07:38:29.792Z,99234.88
2023-05-14T07:40:56.426Z,99226.84
2023-05-14T07:43:23.055Z,99221.97
2023-05-14T07:45:49.700Z,99232.03
2023-05-14T07:48:16.376Z,99227.31
2023-05-14T07:50:43.069Z,99217.25
2023-05-14T07:53:09.576Z,99225.19
2023-05-14T07:55:36.472Z,99226.84
2023-05-14T07:58:03.040Z,99224.06
2023-05-14T08:00:29.615Z,99225.97
2023-05-14T08:02:56.352Z,99228.16
2023-05-14T08:05:23.012Z,99223.81
2023-05-14T08:07:49.477Z,99223.59
2023-05-14T08:10:16.023Z,99223.44
2023-05-14T08:12:42.843Z,99226.69
2023-05-14T08:15:10.149Z,99229.78
2023-05-14T08:17:36.826Z,99217.63
2023-05-14T08:20:06.403Z,99225.34
2023-05-14T08:22:33.052Z,99225.06
2023-05-14T08:25:00.925Z,99222.16
2023-05-14T08:27:28.041Z,99226.06
2023-05-14T08:29:54.488Z,99212.69
2023-05-14T08:32:23.742Z,99217.13
2023-05-14T08:34:51.584Z,99219.03
2023-05-14T08:37:18.464Z,99209.56
2023-05-14T08:39:45.139Z,99204.88
2023-05-14T08:42:15.518Z,99202.28
2023-05-14T08:44:53.217Z,99200.25
2023-05-14T08:47:23.953Z,99198.38
2023-05-14T08:50:04.519Z,99203.16
2023-05-14T08:52:31.896Z,99196.03
2023-05-14T08:55:04.167Z,99191.53
2023-05-14T08:57:33.248Z,99188.81
2023-05-14T09:00:00.322Z,99186.28
2023-05-14T09:02:31.409Z,99187.88
2023-05-14T09:05:02.464Z,99182.50
2023-05-14T09:07:29.163Z,99180.28
2023-05-14T09:09:55.840Z,99181.41
2023-05-14T09:12:22.616Z,99181.41
2023-05-14T09:14:50.962Z,99176.50
2023-05-14T09:17:18.894Z,99182.78
2023-05-14T09:19:49.257Z,99174.44
2023-05-14T09:22:18.542Z,99183.69
2023-05-14T09:24:45.751Z,99174.66
2023-05-14T09:27:21.240Z,99172.84
2023-05-14T09:29:48.474Z,99167.03
2023-05-14T09:32:15.030Z,99165.94
2023-05-14T09:34:42.150Z,99165.72
2023-05-14T09:37:10.224Z,99164.41
2023-05-14T09:39:38.334Z,99157.09
2023-05-14T09:42:06.040Z,99161.22
2023-05-14T09:44:32.713Z,99164.78
2023-05-14T09:46:59.483Z,99159.75
2023-05-14T09:49:26.050Z,99155.78
2023-05-14T09:51:52.919Z,99156.28
2023-05-14T09:54:19.600Z,99154.19
2023-05-14T09:56:46.161Z,99149.19
2023-05-14T09:59:13.159Z,99150.47
2023-05-14T10:01:43.668Z,99146.28
2023-05-14T10:04:12.415Z,99137.59
2023-05-14T10:06:42.129Z,99145.72
2023-05-14T10:09:16.235Z,99143.03
2023-05-14T10:11:47.439Z,99147.44
2023-05-14T10:14:26.695Z,99134.22
2023-05-14T10:16:58.287Z,99140.16
2023-05-14T10:19:26.376Z,99136.41
2023-05-14T10:22:04.289Z,99133.84
2023-05-14T10:24:32.935Z,99130.59
2023-05-14T10:27:00.795Z,99117.06
2023-05-14T10:29:37.799Z,99118.81
2023-05-14T10:32:08.358Z,99124.53
2023-05-14T10:34:38.181Z,99122.03
2023-05-14T10:37:10.042Z,99119.25
2023-05-14T10:39:54.734Z,99112.34
2023-05-14T10:42:33.151Z,99115.72
2023-05-14T10:45:07.188Z,99107.31
2023-05-14T10:47:37.220Z,99114.34
2023-05-14T10:50:07.936Z,99113.75
2023-05-14T10:52:35.705Z,99118.78
2023-05-14T10:55:07.676Z,99115.00
2023-05-14T10:57:38.305Z,99108.06
2023-05-14T11:00:08.796Z,99098.19
2023-05-14T11:02:38.644Z,99093.97
2023-05-14T11:05:11.367Z,99101.56
2023-05-14T11:07:42.280Z,99084.44
2023-05-14T11:10:20.143Z,99090.31
2023-05-14T11:12:50.848Z,99081.16
2023-05-14T11:15:21.907Z,99068.09
2023-05-14T11:17:51.038Z,99067.16
2023-05-14T11:20:19.589Z,99073.22
2023-05-14T11:22:48.967Z,99061.16
2023-05-14T11:25:15.909Z,99058.25
2023-05-14T11:27:45.960Z,99060.00
2023-05-14T11:30:13.458Z,99051.72
2023-05-14T11:32:40.943Z,99044.09
2023-05-14T11:35:08.244Z,99042.50
2023-05-14T11:37:34.778Z,99048.63
2023-05-14T11:40:01.787Z,99048.88
2023-05-14T11:42:28.396Z,99043.63
2023-05-14T11:44:55.097Z,99042.78
2023-05-14T11:47:23.060Z,99041.47
2023-05-14T11:49:49.888Z,99037.53
2023-05-14T11:52:19.296Z,99043.16
2023-05-14T11:54:46.589Z,99037.09
2023-05-14T11:57:19.443Z,99035.53
2023-05-14T11:59:47.935Z,99036.84
2023-05-14T12:02:18.481Z,99033.69
2023-05-14T12:04:52.240Z,99051.50
2023-05-14T12:07:19.005Z,99042.59
2023-05-14T12:09:49.662Z,99026.38
2023-05-14T12:12:22.561Z,99028.19
2023-05-14T12:14:50.959Z,99024.84
2023-05-14T12:17:22.800Z,99022.56
2023-05-14T12:19:53.703Z,99015.94
2023-05-14T12:22:22.924Z,99014.69
2023-05-14T12:24:56.776Z,99013.09
2023-05-14T12:27:26.415Z,99008.22
2023-05-14T12:30:20.072Z,99007.94
2023-05-14T12:32:51.352Z,99000.53
2023-05-14T12:35:18.530Z,98994.72
2023-05-14T12:37:44.983Z,99003.56
2023-05-14T12:40:11.946Z,99004.38
2023-05-14T12:42:38.379Z,99003.41
2023-05-14T12:45:07.746Z,98993.56
2023-05-14T12:47:34.546Z,98992.94
2023-05-14T12:50:01.294Z,98977.38
2023-05-14T12:52:37.718Z,98982.81
2023-05-14T12:55:07.225Z,98983.06
2023-05-14T12:57:35.453Z,98979.44
2023-05-14T13:00:07.051Z,98970.75
2023-05-14T13:02:42.021Z,98964.59
2023-05-14T13:05:11.526Z,98969.44
2023-05-14T13:07:38.795Z,98959.78
2023-05-14T13:10:06.670Z,98953.22
2023-05-14T13:12:33.421Z,98950.97
2023-05-14T13:14:59.891Z,98949.25
2023-05-14T13:17:26.609Z,98945.06
2023-05-14T13:19:53.171Z,98944.97
2023-05-14T13:22:19.579Z,98939.91
2023-05-14T13:24:46.349Z,98939.75
2023-05-14T13:27:13.036Z,98945.53
2023-05-14T13:29:39.535Z,98939.28
2023-05-14T13:32:06.536Z,98932.78
2023-05-14T13:34:32.996Z,98930.16
2023-05-14T13:36:59.739Z,98929.09
2023-05-14T13:39:27.208Z,98926.97
2023-05-14T13:41:56.714Z,98926.16
2023-05-14T13:44:23.729Z,98921.69
2023-05-14T13:46:50.639Z,98913.47
2023-05-14T13:49:17.333Z,98914.38
2023-05-14T13:51:43.989Z,98910.66
2023-05-14T13:54:10.478Z,98912.78
2023-05-14T13:56:37.007Z,98904.16
2023-05-14T13:59:03.985Z,98899.09
2023-05-14T14:01:31.025Z,98904.00
2023-05-14T14:03:57.789Z,98894.53
2023-05-14T14:06:27.236Z,98900.63
2023-05-14T14:08:54.049Z,98894.88
2023-05-14T14:11:20.715Z,98888.66
2023-05-14T14:13:47.122Z,98885.69
2023-05-14T14:16:13.652Z,98887.09
2023-05-14T14:18:40.260Z,98888.19
2023-05-14T14:21:06.914Z,98882.97
2023-05-14T14:23:33.342Z,98876.25
2023-05-14T14:26:00.993Z,98872.84
2023-05-14T14:28:27.432Z,98873.97
2023-05-14T14:30:54.058Z,98870.84
2023-05-14T14:33:20.621Z,98868.38
2023-05-14T14:35:47.200Z,98872.50
2023-05-14T14:38:14.038Z,98872.19
2023-05-14T14:40:40.681Z,98866.78
2023-05-14T14:43:07.196Z,98867.50
2023-05-14T14:45:33.774Z,98864.97
2023-05-14T14:48:37.937Z,98863.50
2023-05-14T14:51:07.877Z,98867.16
2023-05-14T14:53:36.945Z,98869.88
2023-05-14T14:56:04.363Z,98865.72
2023-05-14T14:58:31.149Z,98862.78
2023-05-14T15:00:58.783Z,98860.50
2023-05-14T15:03:25.943Z,98859.66
2023-05-14T15:05:53.624Z,98866.69
2023-05-14T15:08:27.454Z,98870.16
2023-05-14T15:10:56.254Z,98868.88
2023-05-14T15:13:23.237Z,98874.47
2023-05-14T15:15:51.706Z,98880.84
2023-05-14T15:18:18.315Z,98902.03
2023-05-14T15:20:44.872Z,98915.13
2023-05-14T15:23:11.659Z,98907.38
2023-05-14T15:25:38.418Z,98915.91
2023-05-14T15:28:07.370Z,98921.97
2023-05-14T15:30:34.066Z,98926.22
2023-05-14T15:33:00.911Z,98929.41
2023-05-14T15:35:27.873Z,98918.69
2023-05-14T15:37:57.447Z,98920.69
2023-05-14T15:40:24.179Z,98928.53
2023-05-14T15:42:50.874Z,98928.19
2023-05-14T15:45:17.464Z,98919.28
2023-05-14T15:47:44.995Z,98904.72
2023-05-14T15:50:12.249Z,98894.63
2023-05-14T15:52:39.756Z,98894.47
2023-05-14T15:55:06.990Z,98893.03
2023-05-14T15:57:34.471Z,98893.13
2023-05-14T16:00:01.444Z,98891.94
2023-05-14T16:02:30.350Z,98896.06
2023-05-14T16:04:57.082Z,98893.13
2023-05-14T16:07:23.538Z,98886.25
2023-05-14T16:09:49.946Z,98882.78
2023-05-14T16:12:16.485Z,98885.50
2023-05-14T16:14:45.046Z,98885.78
2023-05-14T16:17:11.769Z,98893.53
2023-05-14T16:19:39.718Z,98887.22
2023-05-14T16:22:06.501Z,98893.03
2023-05-14T16:24:33.291Z,98895.34
2023-05-14T16:27:00.647Z,98893.31
2023-05-14T16:29:27.782Z,98892.44
2023-05-14T16:31:54.933Z,98887.13
2023-05-14T16:34:21.537Z,98879.91
2023-05-14T16:36:48.208Z,98874.53
2023-05-14T16:39:14.747Z,98878.78
2023-05-14T16:41:41.345Z,98879.66
2023-05-14T16:44:07.850Z,98886.03
2023-05-14T16:46:34.589Z,98886.31
2023-05-14T16:49:02.430Z,98894.19
2023-05-14T16:51:29.015Z,98904.91
2023-05-14T16:53:55.846Z,98900.16
2023-05-14T16:56:22.523Z,98903.00
2023-05-14T16:58:50.098Z,98906.25
2023-05-14T17:01:16.568Z,98904.34
2023-05-14T17:03:44.495Z,98903.59
2023-05-14T17:06:11.302Z,98906.38
2023-05-14T17:08:37.757Z,98906.56
2023-05-14T17:11:05.897Z,98910.94
2023-05-14T17:13:33.024Z,98910.13
2023-05-14T17:16:00.835Z,98916.50
2023-05-14T17:18:28.138Z,98921.38
2023-05-14T17:20:54.805Z,98915.19
2023-05-14T17:23:21.403Z,98915.19
2023-05-14T17:25:47.950Z,98915.75
2023-05-14T17:28:14.771Z,98911.00
2023-05-14T17:30:41.350Z,98916.19
2023-05-14T17:33:07.884Z,98917.16
2023-05-14T17:35:36.211Z,98912.19
2023-05-14T17:38:03.342Z,98911.09
2023-05-14T17:40:29.841Z,98915.59
2023-05-14T17:42:56.324Z,98916.59
2023-05-14T17:45:22.994Z,98913.91
2023-05-14T17:47:51.187Z,98914.41
2023-05-14T17:50:18.654Z,98915.63
2023-05-14T17:52:46.101Z,98913.41
2023-05-14T17:55:12.710Z,98909.88
2023-05-14T17:57:39.339Z,98911.72
2023-05-14T18:00:07.531Z,98913.81
2023-05-14T18:02:34.193Z,98913.41
2023-05-14T18:05:02.610Z,98912.19
2023-05-14T18:07:30.816Z,98916.13
2023-05-14T18:09:58.135Z,98922.56
2023-05-14T18:12:26.596Z,98936.56
2023-05-14T18:14:53.875Z,98935.34
2023-05-14T18:17:20.698Z,98926.47
2023-05-14T18:19:47.540Z,98928.72
2023-05-14T18:22:14.173Z,98934.31
2023-05-14T18:24:40.759Z,98924.63
2023-05-14T18:27:07.329Z,98940.91
2023-05-14T18:29:33.832Z,98934.91
2023-05-14T18:32:00.327Z,98947.09
2023-05-14T18:34:26.831Z,98949.78
2023-05-14T18:36:54.517Z,98945.66
2023-05-14T18:39:21.002Z,98950.81
2023-05-14T18:41:47.577Z,98953.88
2023-05-14T18:44:14.143Z,98952.47
2023-05-14T18:46:43.326Z,98950.78
2023-05-14T18:49:09.858Z,98950.81
2023-05-14T18:51:36.313Z,98950.78
2023-05-14T18:54:03.182Z,98942.31
2023-05-14T18:56:29.655Z,98938.66
2023-05-14T18:58:56.136Z,98929.56
2023-05-14T19:01:25.299Z,98940.47
2023-05-14T19:03:53.015Z,98940.28
2023-05-14T19:06:20.179Z,98937.84
2023-05-14T19:08:46.705Z,98946.22
2023-05-14T19:11:13.203Z,98943.44
2023-05-14T19:13:39.729Z,98951.03
2023-05-14T19:16:06.888Z,98956.22
2023-05-14T19:18:34.312Z,98960.38
2023-05-14T19:21:00.876Z,98957.09
2023-05-14T19:23:27.310Z,98955.47
2023-05-14T19:25:54.296Z,98948.84
2023-05-14T19:28:21.251Z,98947.19
2023-05-14T19:30:47.808Z,98948.63
2023-05-14T19:33:14.459Z,98933.38
2023-05-14T19:35:40.940Z,98957.75
2023-05-14T19:38:09.034Z,98971.13
2023-05-14T19:40:35.547Z,98974.00
2023-05-14T19:43:02.236Z,98969.59
2023-05-14T19:45:28.796Z,98967.25
2023-05-14T19:47:55.466Z,98966.59
2023-05-14T19:50:22.016Z,98965.31
2023-05-14T19:52:48.780Z,98953.22
2023-05-14T19:55:15.238Z,98961.47
2023-05-14T19:57:41.752Z,98952.66
2023-05-14T20:00:09.170Z,98947.69
2023-05-14T20:02:35.750Z,98955.56
2023-05-14T20:05:02.294Z,98952.50
2023-05-14T20:07:29.369Z,98949.13
2023-05-14T20:09:55.882Z,98952.19
2023-05-14T20:12:22.332Z,98948.47
2023-05-14T20:14:48.783Z,98938.41
2023-05-14T20:17:15.477Z,98946.06
2023-05-14T20:19:43.633Z,98942.72
2023-05-14T20:22:10.265Z,98946.66
2023-05-14T20:24:36.755Z,98945.47
2023-05-14T20:27:03.254Z,98940.94
2023-05-14T20:29:29.912Z,98914.03
2023-05-14T20:31:56.813Z,98915.56
2023-05-14T20:34:23.298Z,98917.19
2023-05-14T20:36:50.188Z,98909.13
2023-05-14T20:39:16.691Z,98910.59
2023-05-14T20:41:45.398Z,98918.19
2023-05-14T20:44:11.818Z,98914.84
2023-05-14T20:46:38.774Z,98913.47
2023-05-14T20:49:05.387Z,98910.84
2023-05-14T20:51:32.584Z,98910.00
2023-05-14T20:53:59.020Z,98907.63
2023-05-14T20:56:26.406Z,98913.97
2023-05-14T20:58:52.970Z,98905.59
2023-05-14T21:01:19.687Z,98906.59
2023-05-14T21:03:46.377Z,98906.25
2023-05-14T21:06:13.007Z,98914.47
2023-05-14T21:08:40.353Z,98908.06
2023-05-14T21:11:06.801Z,98898.94
2023-05-14T21:13:33.314Z,98890.97
2023-05-14T21:16:00.400Z,98891.06
2023-05-14T21:18:30.579Z,98896.91
2023-05-14T21:20:57.041Z,98893.34
2023-05-14T21:23:23.580Z,98900.31
2023-05-14T21:25:50.351Z,98896.56
2023-05-14T21:28:16.808Z,98901.09
2023-05-14T21:30:43.323Z,98899.97
2023-05-14T21:33:09.836Z,98907.00
2023-05-14T21:35:36.421Z,98900.34
2023-05-14T21:38:03.014Z,98902.56
2023-05-14T21:40:29.475Z,98904.97
2023-05-14T21:42:55.978Z,98897.38
2023-05-14T21:45:23.570Z,98901.38
2023-05-14T21:47:50.594Z,98899.63
2023-05-14T21:50:17.189Z,98900.72
2023-05-14T21:52:43.614Z,98906.06
2023-05-14T21:55:10.345Z,98900.28
2023-05-14T21:57:36.915Z,98899.59
2023-05-14T22:00:10.488Z,98898.56
2023-05-14T22:02:37.046Z,98899.84
2023-05-14T22:05:03.834Z,98900.72
2023-05-14T22:07:32.803Z,98890.09
2023-05-14T22:09:59.774Z,98898.00
2023-05-14T22:12:26.701Z,98893.47
2023-05-14T22:14:53.235Z,98903.00
2023-05-14T22:17:19.739Z,98904.03
2023-05-14T22:19:46.332Z,98899.88
2023-05-14T22:22:12.745Z,98897.44
2023-05-14T22:24:39.166Z,98898.91
2023-05-14T22:27:06.209Z,98899.72
2023-05-14T22:29:32.708Z,98890.47
2023-05-14T22:31:59.439Z,98897.41
2023-05-14T22:34:26.171Z,98895.50
2023-05-14T22:36:52.848Z,98896.72
2023-05-14T22:39:19.271Z,98892.00
2023-05-14T22:41:45.968Z,98884.72
2023-05-14T22:44:12.479Z,98879.72
2023-05-14T22:46:38.933Z,98889.34
2023-05-14T22:49:05.807Z,98883.94
2023-05-14T22:51:32.683Z,98882.09
2023-05-14T22:53:59.209Z,98878.09
2023-05-14T22:56:25.729Z,98877.03
2023-05-14T22:58:52.201Z,98874.78
2023-05-14T23:01:18.749Z,98878.31
2023-05-14T23:03:45.390Z,98874.63
2023-05-14T23:06:14.372Z,98868.38
2023-05-14T23:08:40.963Z,98873.72
2023-05-14T23:11:07.713Z,98870.47
2023-05-14T23:13:34.303Z,98873.78
2023-05-14T23:16:01.687Z,98865.72
2023-05-14T23:18:28.306Z,98870.66
2023-05-14T23:20:55.079Z,98864.38
2023-05-14T23:23:21.679Z,98863.94
2023-05-14T23:25:50.150Z,98857.34
2023-05-14T23:28:17.816Z,98865.91
2023-05-14T23:30:45.567Z,98860.81
2023-05-14T23:33:12.227Z,98864.69
2023-05-14T23:35:40.173Z,98851.06
2023-05-14T23:38:07.332Z,98852.72
2023-05-14T23:40:34.503Z,98852.00
2023-05-14T23:43:01.029Z,98847.69
2023-05-14T23:45:28.181Z,98843.00
2023-05-14T23:47:58.259Z,98852.84
2023-05-14T23:50:25.703Z,98842.97
2023-05-14T23:52:54.612Z,98844.94
2023-05-14T23:55:22.843Z,98841.69
2023-05-14T23:57:49.827Z,98840.38
